createdAt,value
2023-12-19T00:01:22.665Z,4.80
2023-12-19T00:04:34.962Z,4.80
2023-12-19T00:07:47.418Z,4.79
2023-12-19T00:10:54.731Z,4.78
2023-12-19T00:14:02.726Z,4.70
2023-12-19T00:17:09.957Z,4.79
2023-12-19T00:20:18.316Z,4.77
2023-12-19T00:23:38.458Z,4.76
2023-12-19T00:26:46.381Z,4.79
2023-12-19T00:29:57.840Z,4.83
2023-12-19T00:33:06.773Z,4.87
2023-12-19T00:36:24.599Z,4.88
2023-12-19T00:39:41.471Z,4.89
2023-12-19T00:42:48.757Z,4.88
2023-12-19T00:45:59.233Z,4.93
2023-12-19T00:49:08.176Z,4.97
2023-12-19T00:52:16.156Z,4.98
2023-12-19T00:55:26.444Z,4.98
2023-12-19T00:58:40.523Z,4.88
2023-12-19T01:01:53.813Z,4.95
2023-12-19T01:05:02.702Z,4.95
2023-12-19T01:08:28.247Z,4.91
2023-12-19T01:11:45.805Z,4.93
2023-12-19T01:14:52.959Z,4.93
2023-12-19T01:18:00.971Z,4.93
2023-12-19T01:21:15.451Z,4.89
2023-12-19T01:24:26.765Z,4.88
2023-12-19T01:27:36.933Z,4.89
2023-12-19T01:30:46.525Z,4.89
2023-12-19T01:33:54.891Z,4.87
2023-12-19T01:37:02.998Z,4.85
2023-12-19T01:40:22.889Z,4.87
2023-12-19T01:43:33.529Z,4.86
2023-12-19T01:46:40.572Z,4.85
2023-12-19T01:49:55.050Z,4.86
2023-12-19T01:53:03.454Z,4.90
2023-12-19T01:56:16.668Z,4.93
2023-12-19T01:59:37.075Z,4.95
2023-12-19T02:02:46.404Z,4.99
2023-12-19T02:05:57.692Z,4.94
2023-12-19T02:09:06.478Z,4.97
2023-12-19T02:12:14.208Z,5.03
2023-12-19T02:15:31.620Z,5.06
2023-12-19T02:18:46.859Z,5.10
2023-12-19T02:21:54.908Z,5.12
2023-12-19T02:25:05.410Z,5.15
2023-12-19T02:28:13.579Z,5.17
2023-12-19T02:31:20.858Z,5.19
2023-12-19T02:34:29.305Z,5.19
2023-12-19T02:37:36.666Z,5.21
2023-12-19T02:40:47.455Z,5.23
2023-12-19T02:43:57.986Z,5.28
2023-12-19T02:47:06.717Z,5.29
2023-12-19T02:50:14.686Z,5.33
2023-12-19T02:53:22.672Z,5.35
2023-12-19T02:56:42.490Z,5.36
2023-12-19T02:59:54.198Z,5.42
2023-12-19T03:03:02.599Z,5.43
2023-12-19T03:06:11.153Z,5.47
2023-12-19T03:09:18.302Z,5.47
2023-12-19T03:12:28.775Z,5.50
2023-12-19T03:15:39.951Z,5.55
2023-12-19T03:18:48.077Z,5.61
2023-12-19T03:21:55.945Z,5.68
2023-12-19T03:25:04.064Z,5.71
2023-12-19T03:28:13.795Z,5.73
2023-12-19T03:31:22.024Z,5.74
2023-12-19T03:34:29.394Z,5.78
2023-12-19T03:37:51.992Z,5.83
2023-12-19T03:41:01.520Z,5.89
2023-12-19T03:44:12.076Z,5.95
2023-12-19T03:47:19.554Z,5.99
2023-12-19T03:50:37.505Z,6.04
2023-12-19T03:53:44.670Z,6.07
2023-12-19T03:56:54.813Z,6.13
2023-12-19T04:00:08.342Z,6.17
2023-12-19T04:03:19.256Z,6.16
2023-12-19T04:06:31.376Z,6.18
2023-12-19T04:09:41.818Z,6.10
2023-12-19T04:12:49.413Z,6.06
2023-12-19T04:16:13.135Z,6.02
2023-12-19T04:19:27.656Z,6.01
2023-12-19T04:22:38.973Z,5.96
2023-12-19T04:25:57.404Z,5.90
2023-12-19T04:29:08.266Z,5.85
2023-12-19T04:32:18.434Z,5.81
2023-12-19T04:35:27.238Z,5.81
2023-12-19T04:38:40.453Z,5.80
2023-12-19T04:41:55.203Z,5.76
2023-12-19T04:45:02.614Z,5.77
2023-12-19T04:48:18.058Z,5.80
2023-12-19T04:51:43.612Z,5.79
2023-12-19T04:54:55.185Z,5.78
2023-12-19T04:58:02.639Z,5.76
2023-12-19T05:01:20.641Z,5.71
2023-12-19T05:04:30.674Z,5.68
2023-12-19T05:07:38.805Z,5.67
2023-12-19T05:10:45.901Z,5.65
2023-12-19T05:13:54.209Z,5.59
2023-12-19T05:17:01.425Z,5.58
2023-12-19T05:20:14.235Z,5.59
2023-12-19T05:23:21.458Z,5.58
2023-12-19T05:26:29.480Z,5.53
2023-12-19T05:29:36.554Z,5.50
2023-12-19T05:32:57.588Z,5.45
2023-12-19T05:36:29.876Z,5.43
2023-12-19T05:39:49.472Z,5.37
2023-12-19T05:42:59.702Z,5.34
2023-12-19T05:46:07.913Z,5.33
2023-12-19T05:49:16.942Z,5.30
2023-12-19T05:52:28.363Z,5.25
2023-12-19T05:55:36.437Z,5.26
2023-12-19T05:58:47.688Z,5.23
2023-12-19T06:01:54.891Z,5.19
2023-12-19T06:05:08.904Z,5.20
2023-12-19T06:08:23.089Z,5.19
2023-12-19T06:11:32.980Z,5.15
2023-12-19T06:14:41.789Z,5.14
2023-12-19T06:17:50.945Z,5.13
2023-12-19T06:20:58.168Z,5.14
2023-12-19T06:24:13.231Z,5.18
2023-12-19T06:27:20.683Z,5.14
2023-12-19T06:30:36.391Z,5.22
2023-12-19T06:33:47.052Z,5.30
2023-12-19T06:36:57.086Z,5.40
2023-12-19T06:40:08.768Z,5.49
2023-12-19T06:43:16.805Z,5.52
2023-12-19T06:46:24.722Z,5.57
2023-12-19T06:49:32.709Z,5.59
2023-12-19T06:52:39.820Z,5.64
2023-12-19T06:55:50.507Z,5.63
2023-12-19T06:59:10.524Z,5.62
2023-12-19T07:02:22.988Z,5.68
2023-12-19T07:05:33.380Z,5.66
2023-12-19T07:08:46.556Z,5.68
2023-12-19T07:11:57.485Z,5.69
2023-12-19T07:15:07.022Z,5.72
2023-12-19T07:18:16.371Z,5.73
2023-12-19T07:21:53.450Z,5.75
2023-12-19T07:25:00.670Z,5.76
2023-12-19T07:28:23.036Z,5.83
2023-12-19T07:31:32.840Z,5.83
2023-12-19T07:34:47.911Z,5.88
2023-12-19T07:38:02.540Z,5.94
2023-12-19T07:41:11.318Z,6.00
2023-12-19T07:44:21.578Z,6.08
2023-12-19T07:47:29.889Z,6.17
2023-12-19T07:50:43.596Z,6.25
2023-12-19T07:53:51.845Z,6.42
2023-12-19T07:56:59.618Z,6.54
2023-12-19T08:00:21.968Z,6.64
2023-12-19T08:03:29.452Z,6.72
2023-12-19T08:06:37.837Z,6.81
2023-12-19T08:09:44.976Z,6.82
2023-12-19T08:13:03.429Z,6.93
2023-12-19T08:16:13.543Z,7.15
2023-12-19T08:19:28.801Z,7.36
2023-12-19T08:22:35.956Z,7.62
2023-12-19T08:25:45.188Z,7.74
2023-12-19T08:28:53.011Z,7.98
2023-12-19T08:32:03.561Z,8.39
2023-12-19T08:35:11.618Z,8.59
2023-12-19T08:38:20.101Z,8.71
2023-12-19T08:41:27.777Z,8.57
2023-12-19T08:44:35.821Z,8.54
2023-12-19T08:47:52.139Z,8.45
2023-12-19T08:51:00.231Z,8.71
2023-12-19T08:54:14.580Z,8.96
2023-12-19T08:57:28.680Z,9.17
2023-12-19T09:00:37.066Z,9.06
2023-12-19T09:03:47.837Z,9.30
2023-12-19T09:07:07.626Z,9.17
2023-12-19T09:10:22.354Z,8.99
2023-12-19T09:13:31.349Z,9.12
2023-12-19T09:16:39.300Z,9.18
2023-12-19T09:19:58.013Z,9.30
2023-12-19T09:23:06.366Z,9.30
2023-12-19T09:26:13.742Z,9.31
2023-12-19T09:29:29.390Z,9.00
2023-12-19T09:32:36.578Z,8.69
2023-12-19T09:35:52.858Z,8.53
2023-12-19T09:39:02.539Z,8.23
2023-12-19T09:42:13.226Z,8.12
2023-12-19T09:45:20.640Z,8.21
2023-12-19T09:48:29.832Z,8.50
2023-12-19T09:51:47.319Z,8.82
2023-12-19T09:54:59.897Z,9.39
2023-12-19T09:58:10.409Z,9.66
2023-12-19T10:01:21.964Z,9.68
2023-12-19T10:04:30.744Z,9.76
2023-12-19T10:07:41.565Z,10.08
2023-12-19T10:11:00.231Z,10.27
2023-12-19T10:14:15.896Z,10.74
2023-12-19T10:17:23.970Z,10.88
2023-12-19T10:20:32.114Z,10.81
2023-12-19T10:23:42.506Z,10.82
2023-12-19T10:26:50.780Z,11.11
2023-12-19T10:29:58.137Z,11.38
2023-12-19T10:33:09.737Z,11.65
2023-12-19T10:36:30.310Z,11.63
2023-12-19T10:39:55.603Z,11.88
2023-12-19T10:43:25.387Z,12.19
2023-12-19T10:46:36.483Z,12.16
2023-12-19T10:49:47.887Z,12.20
2023-12-19T10:53:06.890Z,11.80
2023-12-19T10:56:19.709Z,11.45
2023-12-19T10:59:52.866Z,11.18
2023-12-19T11:03:28.840Z,11.26
2023-12-19T11:06:47.067Z,11.80
2023-12-19T11:10:07.205Z,11.93
2023-12-19T11:13:19.018Z,11.85
2023-12-19T11:16:56.503Z,11.28
2023-12-19T11:20:36.428Z,10.79
2023-12-19T11:24:20.770Z,10.36
2023-12-19T11:27:40.409Z,10.46
2023-12-19T11:30:50.411Z,10.63
2023-12-19T11:33:58.823Z,10.90
2023-12-19T11:37:09.176Z,10.66
2023-12-19T11:40:54.558Z,10.15
2023-12-19T11:44:02.591Z,9.77
2023-12-19T11:47:23.526Z,9.71
2023-12-19T11:50:51.445Z,9.68
2023-12-19T11:54:00.823Z,9.61
2023-12-19T11:57:08.981Z,9.56
2023-12-19T12:00:24.655Z,9.43
2023-12-19T12:03:43.250Z,9.35
2023-12-19T12:06:51.597Z,9.18
2023-12-19T12:10:12.841Z,9.07
2023-12-19T12:13:44.257Z,8.98
2023-12-19T12:16:51.425Z,8.77
2023-12-19T12:20:02.825Z,8.94
2023-12-19T12:23:10.057Z,9.07
2023-12-19T12:26:37.793Z,9.01
2023-12-19T12:29:45.632Z,9.35
2023-12-19T12:33:20.681Z,9.95
2023-12-19T12:36:31.713Z,9.97
2023-12-19T12:39:39.829Z,9.83
2023-12-19T12:42:46.990Z,9.70
2023-12-19T12:46:18.212Z,9.61
2023-12-19T12:49:25.803Z,9.50
2023-12-19T12:52:36.640Z,9.48
2023-12-19T12:55:44.180Z,9.69
2023-12-19T12:59:03.731Z,10.10
2023-12-19T13:02:11.123Z,10.39
2023-12-19T13:05:19.231Z,10.49
2023-12-19T13:08:29.006Z,10.56
2023-12-19T13:11:36.939Z,10.63
2023-12-19T13:14:44.206Z,10.56
2023-12-19T13:17:52.367Z,10.60
2023-12-19T13:21:03.359Z,10.54
2023-12-19T13:24:15.415Z,10.45
2023-12-19T13:27:22.655Z,10.38
2023-12-19T13:30:31.392Z,10.30
2023-12-19T13:33:54.724Z,10.14
2023-12-19T13:37:22.980Z,9.96
2023-12-19T13:40:33.373Z,9.94
2023-12-19T13:43:42.083Z,9.83
2023-12-19T13:46:49.782Z,9.73
2023-12-19T13:49:57.867Z,9.62
2023-12-19T13:53:06.076Z,9.50
2023-12-19T13:56:21.281Z,9.46
2023-12-19T13:59:29.505Z,9.35
2023-12-19T14:02:40.517Z,9.21
2023-12-19T14:05:48.229Z,9.12
2023-12-19T14:08:56.213Z,9.05
2023-12-19T14:12:06.033Z,8.91
2023-12-19T14:15:17.028Z,8.79
2023-12-19T14:18:24.890Z,8.62
2023-12-19T14:21:33.087Z,8.57
2023-12-19T14:24:41.033Z,8.47
2023-12-19T14:27:53.940Z,8.36
2023-12-19T14:31:01.285Z,8.30
2023-12-19T14:34:09.674Z,8.20
2023-12-19T14:37:19.136Z,8.13
2023-12-19T14:40:27.282Z,8.07
2023-12-19T14:43:37.208Z,8.04
2023-12-19T14:46:46.670Z,8.00
2023-12-19T14:49:54.213Z,7.93
2023-12-19T14:53:02.485Z,7.91
2023-12-19T14:56:13.389Z,7.87
2023-12-19T14:59:23.955Z,7.85
2023-12-19T15:02:32.241Z,7.81
2023-12-19T15:05:40.231Z,7.80
2023-12-19T15:08:48.299Z,7.79
2023-12-19T15:11:56.349Z,7.78
2023-12-19T15:15:06.634Z,7.80
2023-12-19T15:18:20.333Z,7.79
2023-12-19T15:21:37.010Z,7.77
2023-12-19T15:24:45.153Z,7.77
2023-12-19T15:27:52.271Z,7.76
2023-12-19T15:31:03.057Z,7.71
2023-12-19T15:34:10.638Z,7.67
2023-12-19T15:37:20.508Z,7.65
2023-12-19T15:40:27.916Z,7.61
2023-12-19T15:43:41.059Z,7.58
2023-12-19T15:46:51.832Z,7.56
2023-12-19T15:50:00.224Z,7.57
2023-12-19T15:53:08.514Z,7.59
2023-12-19T15:56:16.581Z,7.63
2023-12-19T15:59:23.632Z,7.69
2023-12-19T16:02:42.469Z,7.72
2023-12-19T16:06:05.782Z,7.74
2023-12-19T16:09:13.982Z,7.67
2023-12-19T16:12:21.194Z,7.68
2023-12-19T16:15:30.179Z,7.67
2023-12-19T16:18:40.064Z,7.68
2023-12-19T16:21:48.351Z,7.62
2023-12-19T16:24:56.920Z,7.58
2023-12-19T16:28:05.458Z,7.58
2023-12-19T16:31:22.263Z,7.57
2023-12-19T16:34:33.293Z,7.54
2023-12-19T16:37:40.633Z,7.52
2023-12-19T16:40:55.932Z,7.49
2023-12-19T16:44:03.123Z,7.49
2023-12-19T16:47:11.358Z,7.50
2023-12-19T16:50:22.550Z,7.50
2023-12-19T16:53:30.578Z,7.47
2023-12-19T16:56:38.973Z,7.47
2023-12-19T16:59:47.699Z,7.48
2023-12-19T17:02:57.068Z,7.47
2023-12-19T17:06:09.172Z,7.51
2023-12-19T17:09:16.495Z,7.51
2023-12-19T17:12:24.595Z,7.54
2023-12-19T17:15:32.392Z,7.57
2023-12-19T17:18:41.758Z,7.53
2023-12-19T17:21:51.600Z,7.57
2023-12-19T17:25:00.632Z,7.53
2023-12-19T17:28:09.168Z,7.48
2023-12-19T17:31:23.567Z,7.47
2023-12-19T17:34:30.961Z,7.41
2023-12-19T17:37:41.759Z,7.39
2023-12-19T17:40:49.287Z,7.34
2023-12-19T17:44:02.551Z,7.31
2023-12-19T17:47:10.351Z,7.28
2023-12-19T17:50:24.033Z,7.28
2023-12-19T17:53:34.959Z,7.28
2023-12-19T17:56:43.094Z,7.25
2023-12-19T17:59:50.337Z,7.26
2023-12-19T18:02:58.314Z,7.21
2023-12-19T18:06:09.873Z,7.21
2023-12-19T18:09:21.221Z,7.21
2023-12-19T18:12:31.252Z,7.21
2023-12-19T18:15:39.360Z,7.21
2023-12-19T18:18:46.902Z,7.20
2023-12-19T18:21:55.039Z,7.22
2023-12-19T18:25:05.760Z,7.16
2023-12-19T18:28:13.925Z,7.27
2023-12-19T18:31:21.202Z,7.28
2023-12-19T18:34:30.289Z,7.30
2023-12-19T18:37:38.676Z,7.32
2023-12-19T18:40:53.349Z,7.34
2023-12-19T18:44:00.546Z,7.32
2023-12-19T18:47:09.451Z,7.33
2023-12-19T18:50:25.894Z,7.32
2023-12-19T18:53:34.647Z,7.34
2023-12-19T18:56:44.545Z,7.35
2023-12-19T18:59:52.627Z,7.34
2023-12-19T19:03:00.993Z,7.31
2023-12-19T19:06:09.498Z,7.33
2023-12-19T19:09:17.507Z,7.25
2023-12-19T19:12:28.255Z,7.35
2023-12-19T19:15:36.835Z,7.35
2023-12-19T19:18:47.475Z,7.34
2023-12-19T19:21:54.705Z,7.36
2023-12-19T19:25:04.713Z,7.34
2023-12-19T19:28:18.121Z,7.31
2023-12-19T19:31:26.521Z,7.24
2023-12-19T19:34:36.072Z,7.26
2023-12-19T19:37:44.591Z,7.23
2023-12-19T19:40:56.325Z,7.24
2023-12-19T19:44:13.825Z,7.25
2023-12-19T19:47:21.124Z,7.17
2023-12-19T19:50:29.796Z,7.34
2023-12-19T19:53:39.194Z,7.32
2023-12-19T19:56:47.390Z,7.30
2023-12-19T19:59:57.377Z,7.33
2023-12-19T20:03:07.515Z,7.37
2023-12-19T20:06:15.734Z,7.34
2023-12-19T20:09:23.720Z,7.34
2023-12-19T20:12:35.184Z,7.35
2023-12-19T20:15:45.985Z,7.36
2023-12-19T20:18:53.398Z,7.38
2023-12-19T20:22:08.186Z,7.43
2023-12-19T20:25:17.565Z,7.42
2023-12-19T20:28:26.170Z,7.45
2023-12-19T20:31:35.987Z,7.48
2023-12-19T20:34:44.003Z,7.47
2023-12-19T20:37:51.274Z,7.51
2023-12-19T20:40:59.711Z,7.55
2023-12-19T20:44:08.876Z,7.54
2023-12-19T20:47:19.666Z,7.52
2023-12-19T20:50:27.032Z,7.47
2023-12-19T20:53:35.223Z,7.44
2023-12-19T20:56:42.968Z,7.42
2023-12-19T20:59:54.972Z,7.41
2023-12-19T21:03:05.453Z,7.37
2023-12-19T21:06:13.521Z,7.44
2023-12-19T21:09:20.716Z,7.46
2023-12-19T21:12:28.967Z,7.49
2023-12-19T21:15:36.760Z,7.49
2023-12-19T21:18:47.364Z,7.49
2023-12-19T21:21:54.610Z,7.44
2023-12-19T21:25:03.086Z,7.37
2023-12-19T21:28:10.753Z,7.33
2023-12-19T21:31:22.940Z,7.32
2023-12-19T21:34:34.141Z,7.25
2023-12-19T21:37:47.278Z,7.19
2023-12-19T21:40:56.655Z,7.19
2023-12-19T21:44:05.423Z,7.14
2023-12-19T21:47:12.569Z,7.13
2023-12-19T21:50:23.348Z,7.14
2023-12-19T21:53:30.485Z,7.19
2023-12-19T21:56:41.912Z,7.16
2023-12-19T21:59:49.949Z,7.15
2023-12-19T22:02:57.952Z,7.14
2023-12-19T22:06:08.408Z,7.07
2023-12-19T22:09:16.680Z,7.05
2023-12-19T22:12:23.877Z,7.04
2023-12-19T22:15:31.902Z,7.04
2023-12-19T22:18:39.324Z,7.04
2023-12-19T22:21:50.003Z,7.05
2023-12-19T22:24:57.402Z,7.05
2023-12-19T22:28:11.041Z,7.03
2023-12-19T22:31:38.734Z,7.00
2023-12-19T22:34:47.202Z,7.06
2023-12-19T22:38:02.582Z,7.07
2023-12-19T22:41:17.556Z,7.08
2023-12-19T22:44:24.868Z,7.05
2023-12-19T22:47:33.702Z,7.08
2023-12-19T22:50:40.793Z,7.16
2023-12-19T22:53:52.595Z,7.13
2023-12-19T22:56:59.837Z,7.02
2023-12-19T23:00:18.355Z,7.03
2023-12-19T23:03:28.320Z,6.97
2023-12-19T23:06:38.147Z,6.91
2023-12-19T23:09:48.617Z,6.82
2023-12-19T23:12:57.995Z,6.80
2023-12-19T23:16:08.619Z,6.80
2023-12-19T23:19:35.879Z,6.80
2023-12-19T23:23:04.280Z,6.79
2023-12-19T23:26:17.543Z,6.79
2023-12-19T23:29:24.741Z,6.78
2023-12-19T23:32:34.873Z,6.78
2023-12-19T23:35:41.963Z,6.83
2023-12-19T23:38:49.889Z,6.78
2023-12-19T23:42:08.589Z,6.65
2023-12-19T23:45:16.770Z,6.56
2023-12-19T23:48:23.921Z,6.47
2023-12-19T23:51:31.973Z,6.43
2023-12-19T23:54:39.286Z,6.46
2023-12-19T23:57:50.025Z,6.47
